createdAt,value
2019-05-14T00:01:31.445Z,102782.48
2019-05-14T00:04:03.673Z,102784.56
2019-05-14T00:06:34.480Z,102771.27
2019-05-14T00:09:07.233Z,102783.42
2019-05-14T00:11:37.600Z,102784.25
2019-05-14T00:14:08.226Z,102778.64
2019-05-14T00:16:38.875Z,102781.03
2019-05-14T00:19:11.222Z,102777.17
2019-05-14T00:21:42.490Z,102772.04
2019-05-14T00:24:13.500Z,102771.63
2019-05-14T00:26:44.001Z,102768.91
2019-05-14T00:29:14.768Z,102769.56
2019-05-14T00:31:45.096Z,102761.23
2019-05-14T00:34:18.599Z,102768.36
2019-05-14T00:36:48.906Z,102765.00
2019-05-14T00:39:21.337Z,102758.94
2019-05-14T00:41:51.810Z,102748.81
2019-05-14T00:44:22.227Z,102742.64
2019-05-14T00:46:52.582Z,102745.25
2019-05-14T00:49:23.282Z,102747.22
2019-05-14T00:51:53.523Z,102748.35
2019-05-14T00:54:24.166Z,102739.02
2019-05-14T00:56:55.498Z,102746.89
2019-05-14T00:59:25.845Z,102736.70
2019-05-14T01:01:56.778Z,102738.70
2019-05-14T01:04:27.055Z,102734.44
2019-05-14T01:06:57.389Z,102732.89
2019-05-14T01:09:28.222Z,102726.19
2019-05-14T01:11:58.652Z,102718.82
2019-05-14T01:14:28.960Z,102718.89
2019-05-14T01:16:59.289Z,102708.00
2019-05-14T01:19:31.553Z,102712.04
2019-05-14T01:22:03.830Z,102712.09
2019-05-14T01:24:34.252Z,102713.97
2019-05-14T01:27:04.882Z,102700.94
2019-05-14T01:29:35.229Z,102700.34
2019-05-14T01:32:05.865Z,102701.61
2019-05-14T01:34:37.116Z,102698.29
2019-05-14T01:37:07.431Z,102687.48
2019-05-14T01:39:38.041Z,102694.61
2019-05-14T01:42:08.284Z,102688.08
2019-05-14T01:44:41.096Z,102680.59
2019-05-14T01:47:12.747Z,102677.67
2019-05-14T01:49:43.005Z,102673.53
2019-05-14T01:52:14.773Z,102671.15
2019-05-14T01:54:47.000Z,102667.00
2019-05-14T01:57:17.367Z,102662.13
2019-05-14T01:59:47.607Z,102657.44
2019-05-14T02:02:18.041Z,102659.98
2019-05-14T02:04:51.287Z,102656.97
2019-05-14T02:07:22.233Z,102648.11
2019-05-14T02:09:53.438Z,102645.36
2019-05-14T02:12:23.794Z,102642.32
2019-05-14T02:14:54.110Z,102645.88
2019-05-14T02:17:25.051Z,102643.58
2019-05-14T02:19:55.668Z,102642.53
2019-05-14T02:22:26.427Z,102643.80
2019-05-14T02:24:56.751Z,102643.09
2019-05-14T02:27:27.987Z,102639.36
2019-05-14T02:30:01.480Z,102637.27
2019-05-14T02:32:31.147Z,102635.20
2019-05-14T02:35:03.734Z,102628.11
2019-05-14T02:37:34.095Z,102627.48
2019-05-14T02:40:13.532Z,102626.35
2019-05-14T02:42:45.292Z,102621.19
2019-05-14T02:45:15.524Z,102620.19
2019-05-14T02:47:45.896Z,102627.23
2019-05-14T02:50:20.176Z,102617.47
2019-05-14T02:52:51.514Z,102628.63
2019-05-14T02:55:21.809Z,102623.45
2019-05-14T02:57:52.085Z,102622.39
2019-05-14T03:00:22.861Z,102618.01
2019-05-14T03:02:53.997Z,102611.66
2019-05-14T03:05:24.308Z,102617.16
2019-05-14T03:07:54.984Z,102615.19
2019-05-14T03:10:29.920Z,102616.35
2019-05-14T03:12:59.125Z,102622.20
2019-05-14T03:15:30.299Z,102610.95
2019-05-14T03:18:00.669Z,102612.13
2019-05-14T03:20:32.203Z,102617.00
2019-05-14T03:23:08.685Z,102616.73
2019-05-14T03:25:34.710Z,102614.44
2019-05-14T03:28:05.247Z,102610.29
2019-05-14T03:30:35.553Z,102615.02
2019-05-14T03:33:06.018Z,102619.54
2019-05-14T03:35:43.945Z,102613.66
2019-05-14T03:38:12.536Z,102619.05
2019-05-14T03:40:45.228Z,102610.71
2019-05-14T03:43:15.661Z,102613.97
2019-05-14T03:45:49.254Z,102615.42
2019-05-14T03:48:19.110Z,102610.28
2019-05-14T03:50:51.351Z,102611.16
2019-05-14T03:53:21.665Z,102609.80
2019-05-14T03:55:52.402Z,102611.50
2019-05-14T03:58:23.888Z,102611.45
2019-05-14T04:01:09.625Z,102612.97
2019-05-14T04:03:40.087Z,102611.47
2019-05-14T04:06:11.777Z,102609.58
2019-05-14T04:08:43.183Z,102615.08
2019-05-14T04:11:16.186Z,102611.70
2019-05-14T04:13:49.901Z,102615.30
2019-05-14T04:16:23.376Z,102611.23
2019-05-14T04:18:55.091Z,102608.27
2019-05-14T04:21:29.871Z,102608.52
2019-05-14T04:24:01.389Z,102610.31
2019-05-14T04:26:50.879Z,102606.44
2019-05-14T04:29:10.141Z,102601.05
2019-05-14T04:31:43.542Z,102604.45
2019-05-14T04:34:14.854Z,102598.55
2019-05-14T04:36:50.318Z,102599.77
2019-05-14T04:39:20.099Z,102602.58
2019-05-14T04:41:51.020Z,102602.11
2019-05-14T04:44:22.393Z,102608.58
2019-05-14T04:46:53.584Z,102604.39
2019-05-14T04:49:23.980Z,102601.42
2019-05-14T04:51:54.349Z,102598.77
2019-05-14T04:54:26.257Z,102594.70
2019-05-14T04:56:59.974Z,102596.16
2019-05-14T04:59:31.083Z,102594.27
2019-05-14T05:02:01.513Z,102590.98
2019-05-14T05:04:31.895Z,102586.52
2019-05-14T05:07:02.862Z,102587.84
2019-05-14T05:09:34.185Z,102596.50
2019-05-14T05:12:05.085Z,102600.05
2019-05-14T05:14:35.474Z,102592.69
2019-05-14T05:17:09.185Z,102588.67
2019-05-14T05:19:44.149Z,102587.30
2019-05-14T05:22:11.475Z,102589.72
2019-05-14T05:24:41.714Z,102588.88
2019-05-14T05:27:14.070Z,102593.30
2019-05-14T05:29:45.546Z,102592.19
2019-05-14T05:32:19.395Z,102591.48
2019-05-14T05:34:49.336Z,102588.86
2019-05-14T05:37:21.072Z,102590.30
2019-05-14T05:39:51.698Z,102590.53
2019-05-14T05:42:23.324Z,102598.84
2019-05-14T05:44:54.637Z,102593.00
2019-05-14T05:47:25.701Z,102595.32
2019-05-14T05:49:58.133Z,102589.89
2019-05-14T05:52:29.778Z,102589.42
2019-05-14T05:55:00.105Z,102591.17
2019-05-14T05:57:30.484Z,102591.38
2019-05-14T06:00:03.160Z,102597.54
2019-05-14T06:02:34.216Z,102586.78
2019-05-14T06:05:07.882Z,102589.31
2019-05-14T06:07:39.406Z,102581.17
2019-05-14T06:10:10.808Z,102591.38
2019-05-14T06:12:41.524Z,102580.83
2019-05-14T06:15:14.328Z,102580.80
2019-05-14T06:17:44.664Z,102581.59
2019-05-14T06:20:18.796Z,102587.00
2019-05-14T06:22:48.961Z,102584.61
2019-05-14T06:25:21.153Z,102602.19
2019-05-14T06:27:51.914Z,102593.08
2019-05-14T06:30:40.801Z,102604.00
2019-05-14T06:33:11.193Z,102602.16
2019-05-14T06:35:48.744Z,102585.05
2019-05-14T06:38:20.172Z,102594.77
2019-05-14T06:40:51.268Z,102583.44
2019-05-14T06:43:23.353Z,102586.67
2019-05-14T06:45:54.974Z,102596.01
2019-05-14T06:48:31.553Z,102593.55
2019-05-14T06:50:59.460Z,102594.54
2019-05-14T06:53:29.857Z,102586.16
2019-05-14T06:56:01.362Z,102575.64
2019-05-14T06:58:33.294Z,102571.56
2019-05-14T07:01:03.669Z,102565.09
2019-05-14T07:03:34.604Z,102568.83
2019-05-14T07:06:05.036Z,102560.07
2019-05-14T07:08:39.231Z,102556.89
2019-05-14T07:11:10.212Z,102566.41
2019-05-14T07:13:42.962Z,102571.64
2019-05-14T07:16:13.316Z,102571.23
2019-05-14T07:18:49.376Z,102560.29
2019-05-14T07:21:18.504Z,102565.59
2019-05-14T07:23:49.283Z,102557.28
2019-05-14T07:26:19.697Z,102548.13
2019-05-14T07:28:50.348Z,102550.77
2019-05-14T07:31:22.121Z,102545.03
2019-05-14T07:33:53.329Z,102542.00
2019-05-14T07:36:24.749Z,102553.66
2019-05-14T07:38:59.807Z,102535.16
2019-05-14T07:41:29.795Z,102532.47
2019-05-14T07:44:00.513Z,102533.56
2019-05-14T07:46:30.903Z,102528.73
2019-05-14T07:49:08.135Z,102535.39
2019-05-14T07:51:33.947Z,102524.26
2019-05-14T07:54:04.433Z,102538.91
2019-05-14T07:56:34.838Z,102532.70
2019-05-14T07:59:05.677Z,102524.31
2019-05-14T08:01:38.851Z,102520.71
2019-05-14T08:04:11.013Z,102532.67
2019-05-14T08:06:40.892Z,102535.86
2019-05-14T08:09:11.377Z,102529.22
2019-05-14T08:11:42.545Z,102546.64
2019-05-14T08:14:13.651Z,102541.92
2019-05-14T08:16:44.154Z,102528.40
2019-05-14T08:19:24.353Z,102531.47
2019-05-14T08:21:49.925Z,102535.09
2019-05-14T08:24:26.672Z,102541.04
2019-05-14T08:26:52.740Z,102518.46
2019-05-14T08:29:24.079Z,102516.34
2019-05-14T08:31:55.344Z,102511.49
2019-05-14T08:34:25.678Z,102515.50
2019-05-14T08:36:58.889Z,102506.59
2019-05-14T08:39:29.852Z,102518.34
2019-05-14T08:42:04.030Z,102500.91
2019-05-14T08:44:35.539Z,102492.48
2019-05-14T08:47:05.869Z,102481.42
2019-05-14T08:49:45.467Z,102482.33
2019-05-14T08:52:09.035Z,102506.97
2019-05-14T08:54:39.593Z,102481.44
2019-05-14T08:57:10.188Z,102479.20
2019-05-14T08:59:40.666Z,102475.72
2019-05-14T09:02:12.422Z,102480.96
2019-05-14T09:04:43.919Z,102477.48
2019-05-14T09:07:14.898Z,102486.77
2019-05-14T09:09:45.624Z,102473.53
2019-05-14T09:12:18.796Z,102464.68
2019-05-14T09:14:50.053Z,102463.38
2019-05-14T09:17:20.386Z,102453.53
2019-05-14T09:20:02.244Z,102442.50
2019-05-14T09:22:23.321Z,102447.64
2019-05-14T09:24:53.675Z,102471.00
2019-05-14T09:27:24.263Z,102442.75
2019-05-14T09:29:54.766Z,102443.94
2019-05-14T09:32:25.868Z,102442.91
2019-05-14T09:34:58.936Z,102450.44
2019-05-14T09:37:29.722Z,102460.83
2019-05-14T09:40:00.505Z,102442.52
2019-05-14T09:42:32.112Z,102434.23
2019-05-14T09:45:03.027Z,102434.66
2019-05-14T09:47:34.621Z,102428.97
2019-05-14T09:50:16.377Z,102436.42
2019-05-14T09:52:39.871Z,102426.19
2019-05-14T09:55:11.294Z,102423.09
2019-05-14T09:57:41.631Z,102424.53
2019-05-14T10:00:14.654Z,102420.98
2019-05-14T10:02:45.073Z,102419.13
2019-05-14T10:05:19.491Z,102435.27
2019-05-14T10:07:50.218Z,102414.66
2019-05-14T10:10:21.542Z,102441.53
2019-05-14T10:12:56.858Z,102430.01
2019-05-14T10:15:24.855Z,102416.49
2019-05-14T10:17:55.162Z,102409.44
2019-05-14T10:20:40.542Z,102406.78
2019-05-14T10:22:58.984Z,102388.27
2019-05-14T10:25:30.575Z,102398.05
2019-05-14T10:28:00.929Z,102392.33
2019-05-14T10:30:32.210Z,102388.34
2019-05-14T10:33:09.473Z,102394.03
2019-05-14T10:35:36.127Z,102389.20
2019-05-14T10:38:08.793Z,102376.83
2019-05-14T10:40:39.947Z,102389.61
2019-05-14T10:43:10.779Z,102390.55
2019-05-14T10:45:43.389Z,102376.87
2019-05-14T10:48:13.705Z,102377.70
2019-05-14T10:50:56.245Z,102377.33
2019-05-14T10:53:20.116Z,102368.50
2019-05-14T10:55:50.452Z,102387.90
2019-05-14T10:58:21.273Z,102360.98
2019-05-14T11:00:52.093Z,102352.97
2019-05-14T11:03:22.618Z,102355.67
2019-05-14T11:05:54.443Z,102351.71
2019-05-14T11:08:24.874Z,102354.79
2019-05-14T11:11:03.035Z,102349.39
2019-05-14T11:13:29.679Z,102345.42
2019-05-14T11:16:01.386Z,102356.95
2019-05-14T11:18:31.786Z,102345.97
2019-05-14T11:21:18.646Z,102345.52
2019-05-14T11:23:34.243Z,102348.55
2019-05-14T11:26:05.003Z,102333.59
2019-05-14T11:28:35.697Z,102326.96
2019-05-14T11:31:09.220Z,102332.66
2019-05-14T11:33:39.168Z,102312.34
2019-05-14T11:36:14.054Z,102314.13
2019-05-14T11:38:44.372Z,102326.58
2019-05-14T11:41:18.419Z,102357.44
2019-05-14T11:43:49.273Z,102330.12
2019-05-14T11:46:38.639Z,102319.46
2019-05-14T11:48:54.806Z,102315.91
2019-05-14T11:51:57.881Z,102309.73
2019-05-14T11:53:58.725Z,102301.77
2019-05-14T11:56:41.802Z,102300.47
2019-05-14T11:59:19.533Z,102293.38
2019-05-14T12:01:54.868Z,102300.42
2019-05-14T12:04:23.242Z,102302.21
2019-05-14T12:06:54.918Z,102290.70
2019-05-14T12:09:25.232Z,102302.14
2019-05-14T12:11:58.522Z,102303.52
2019-05-14T12:14:28.189Z,102288.05
2019-05-14T12:17:03.025Z,102297.35
2019-05-14T12:19:33.773Z,102279.74
2019-05-14T12:22:10.413Z,102272.59
2019-05-14T12:24:38.550Z,102268.44
2019-05-14T12:27:09.026Z,102260.63
2019-05-14T12:29:40.201Z,102258.78
2019-05-14T12:32:12.840Z,102263.05
2019-05-14T12:34:43.111Z,102260.80
2019-05-14T12:37:18.587Z,102246.66
2019-05-14T12:39:48.334Z,102260.27
2019-05-14T12:42:20.156Z,102249.97
2019-05-14T12:44:50.489Z,102258.83
2019-05-14T12:47:23.210Z,102260.08
2019-05-14T12:49:53.543Z,102244.14
2019-05-14T12:52:26.004Z,102252.97
2019-05-14T12:54:55.921Z,102241.17
2019-05-14T12:57:29.993Z,102251.34
2019-05-14T12:59:59.415Z,102228.22
2019-05-14T13:02:29.820Z,102225.17
2019-05-14T13:05:00.272Z,102232.20
2019-05-14T13:07:31.597Z,102248.66
2019-05-14T13:10:01.963Z,102228.89
2019-05-14T13:12:32.399Z,102266.41
2019-05-14T13:15:02.823Z,102226.28
2019-05-14T13:17:35.808Z,102209.00
2019-05-14T13:20:13.183Z,102220.94
2019-05-14T13:22:46.044Z,102210.38
2019-05-14T13:25:13.605Z,102240.37
2019-05-14T13:27:45.595Z,102223.16
2019-05-14T13:30:18.600Z,102198.46
2019-05-14T13:32:50.033Z,102223.98
2019-05-14T13:35:20.768Z,102213.42
2019-05-14T13:37:51.516Z,102194.94
2019-05-14T13:40:22.523Z,102200.19
2019-05-14T13:42:53.766Z,102191.45
2019-05-14T13:45:24.013Z,102193.71
2019-05-14T13:47:54.736Z,102196.33
2019-05-14T13:50:25.233Z,102189.70
2019-05-14T13:53:04.114Z,102186.21
2019-05-14T13:55:30.470Z,102183.96
2019-05-14T13:58:00.227Z,102173.77
2019-05-14T14:00:32.201Z,102179.95
2019-05-14T14:03:02.813Z,102164.03
2019-05-14T14:05:33.143Z,102174.06
2019-05-14T14:08:04.189Z,102159.01
2019-05-14T14:10:36.745Z,102161.74
2019-05-14T14:13:11.074Z,102148.03
2019-05-14T14:15:39.395Z,102163.13
2019-05-14T14:18:10.263Z,102131.30
2019-05-14T14:20:41.113Z,102140.93
2019-05-14T14:23:22.242Z,102120.53
2019-05-14T14:25:44.988Z,102125.77
2019-05-14T14:28:16.476Z,102127.31
2019-05-14T14:30:49.186Z,102160.03
2019-05-14T14:33:20.195Z,102128.34
2019-05-14T14:35:50.435Z,102118.05
2019-05-14T14:38:20.780Z,102112.72
2019-05-14T14:40:51.784Z,102144.92
2019-05-14T14:43:22.509Z,102114.97
2019-05-14T14:45:52.943Z,102110.45
2019-05-14T14:48:25.301Z,102098.05
2019-05-14T14:50:58.470Z,102105.98
2019-05-14T14:53:43.089Z,102080.37
2019-05-14T14:56:02.360Z,102081.95
2019-05-14T14:58:33.152Z,102084.45
2019-05-14T15:01:03.569Z,102101.67
2019-05-14T15:03:34.831Z,102077.83
2019-05-14T15:06:05.084Z,102079.47
2019-05-14T15:08:38.628Z,102075.11
2019-05-14T15:11:08.586Z,102069.79
2019-05-14T15:13:40.758Z,102116.28
2019-05-14T15:16:13.339Z,102084.96
2019-05-14T15:18:44.333Z,102082.05
2019-05-14T15:21:14.640Z,102076.70
2019-05-14T15:24:03.009Z,102069.13
2019-05-14T15:26:19.324Z,102064.61
2019-05-14T15:28:50.633Z,102065.59
2019-05-14T15:31:20.959Z,102067.83
2019-05-14T15:33:52.578Z,102061.69
2019-05-14T15:36:22.901Z,102052.06
2019-05-14T15:38:53.572Z,102042.26
2019-05-14T15:41:23.878Z,102060.97
2019-05-14T15:43:58.717Z,102038.91
2019-05-14T15:46:27.470Z,102029.48
2019-05-14T15:48:59.542Z,102054.91
2019-05-14T15:51:30.024Z,102040.05
2019-05-14T15:54:11.628Z,102041.86
2019-05-14T15:56:33.067Z,102029.56
2019-05-14T15:59:03.723Z,102031.14
2019-05-14T16:01:34.037Z,102047.91
2019-05-14T16:04:11.155Z,102039.20
2019-05-14T16:06:40.671Z,102032.89
2019-05-14T16:09:11.482Z,102033.69
2019-05-14T16:11:42.159Z,102021.17
2019-05-14T16:14:12.927Z,102035.23
2019-05-14T16:16:43.548Z,102013.30
2019-05-14T16:19:15.529Z,102007.56
2019-05-14T16:21:46.194Z,102017.36
2019-05-14T16:24:22.397Z,102006.59
2019-05-14T16:26:50.840Z,102026.75
2019-05-14T16:29:36.762Z,102008.82
2019-05-14T16:31:53.334Z,102005.28
2019-05-14T16:34:24.982Z,102005.30
2019-05-14T16:36:55.739Z,102009.37
2019-05-14T16:39:28.442Z,102030.13
2019-05-14T16:41:58.515Z,102014.66
2019-05-14T16:44:32.180Z,101992.54
2019-05-14T16:47:02.611Z,101996.88
2019-05-14T16:49:34.105Z,102006.04
2019-05-14T16:52:04.879Z,101997.59
2019-05-14T16:54:39.309Z,101988.72
2019-05-14T16:57:11.007Z,101982.55
2019-05-14T16:59:41.166Z,101991.84
2019-05-14T17:02:12.583Z,101987.53
2019-05-14T17:04:44.585Z,101995.14
2019-05-14T17:07:14.901Z,101986.77
2019-05-14T17:09:45.332Z,101989.91
2019-05-14T17:12:20.068Z,101993.93
2019-05-14T17:14:48.740Z,101997.02
2019-05-14T17:17:20.099Z,101985.09
2019-05-14T17:19:52.646Z,101973.49
2019-05-14T17:22:29.138Z,101979.66
2019-05-14T17:24:58.500Z,101982.90
2019-05-14T17:27:28.627Z,101977.60
2019-05-14T17:29:59.480Z,101975.01
2019-05-14T17:32:31.202Z,101981.16
2019-05-14T17:35:03.703Z,101982.52
2019-05-14T17:37:34.441Z,101976.05
2019-05-14T17:40:06.161Z,101971.55
2019-05-14T17:42:39.070Z,101973.28
2019-05-14T17:45:10.347Z,101979.16
2019-05-14T17:47:40.747Z,101969.80
2019-05-14T17:50:13.536Z,101969.81
2019-05-14T17:52:45.371Z,101990.20
2019-05-14T17:55:18.784Z,101978.39
2019-05-14T17:57:57.591Z,101973.11
2019-05-14T18:00:22.197Z,101975.79
2019-05-14T18:02:52.622Z,101968.27
2019-05-14T18:05:25.324Z,101979.66
2019-05-14T18:07:59.106Z,101960.74
2019-05-14T18:10:29.142Z,101963.88
2019-05-14T18:12:59.889Z,101981.52
2019-05-14T18:15:32.213Z,101961.25
2019-05-14T18:18:02.550Z,101987.30
2019-05-14T18:20:33.380Z,101969.31
2019-05-14T18:23:03.879Z,101984.28
2019-05-14T18:25:35.457Z,101970.62
2019-05-14T18:28:09.060Z,101956.50
2019-05-14T18:30:38.814Z,101956.93
2019-05-14T18:33:10.462Z,101952.11
2019-05-14T18:35:46.867Z,101950.34
2019-05-14T18:38:15.101Z,101972.92
2019-05-14T18:40:45.887Z,101958.38
2019-05-14T18:43:18.660Z,101965.43
2019-05-14T18:45:50.452Z,101955.30
2019-05-14T18:48:21.767Z,101949.14
2019-05-14T18:50:53.600Z,101954.89
2019-05-14T18:53:23.839Z,101948.31
2019-05-14T18:55:54.640Z,101945.23
2019-05-14T18:58:26.131Z,101951.42
2019-05-14T19:00:58.632Z,101946.16
2019-05-14T19:03:29.143Z,101962.88
2019-05-14T19:06:00.088Z,101958.94
2019-05-14T19:08:31.196Z,101968.20
2019-05-14T19:11:01.647Z,101948.87
2019-05-14T19:13:32.081Z,101959.00
2019-05-14T19:16:03.147Z,101967.81
2019-05-14T19:18:33.618Z,101963.45
2019-05-14T19:21:05.382Z,101964.31
2019-05-14T19:23:35.746Z,101959.95
2019-05-14T19:26:06.475Z,101956.86
2019-05-14T19:28:38.879Z,101957.77
2019-05-14T19:31:10.535Z,101954.69
2019-05-14T19:33:40.794Z,101960.88
2019-05-14T19:36:11.737Z,101953.83
2019-05-14T19:38:42.075Z,101962.18
2019-05-14T19:41:12.692Z,101977.58
2019-05-14T19:43:43.105Z,101967.03
2019-05-14T19:46:15.283Z,101972.73
2019-05-14T19:48:48.226Z,101970.09
2019-05-14T19:51:18.789Z,101979.80
2019-05-14T19:53:52.042Z,101986.84
2019-05-14T19:56:21.996Z,101977.57
2019-05-14T19:58:53.229Z,101981.09
2019-05-14T20:01:24.679Z,101995.61
2019-05-14T20:03:55.420Z,101982.86
2019-05-14T20:06:25.936Z,101987.21
2019-05-14T20:08:58.754Z,101984.58
2019-05-14T20:11:29.405Z,101981.94
2019-05-14T20:13:59.749Z,101979.73
2019-05-14T20:16:31.153Z,101990.28
2019-05-14T20:19:02.624Z,101989.35
2019-05-14T20:21:34.452Z,101988.47
2019-05-14T20:24:04.760Z,101984.91
2019-05-14T20:26:35.053Z,101978.70
2019-05-14T20:29:08.566Z,101993.65
2019-05-14T20:31:39.577Z,102001.97
2019-05-14T20:34:09.876Z,101999.76
2019-05-14T20:36:41.854Z,102006.34
2019-05-14T20:39:12.639Z,101995.34
2019-05-14T20:41:44.805Z,102001.45
2019-05-14T20:44:15.141Z,102004.05
2019-05-14T20:46:49.005Z,102001.83
2019-05-14T20:49:19.621Z,102008.78
2019-05-14T20:51:51.412Z,102005.66
2019-05-14T20:54:22.057Z,102007.83
2019-05-14T20:56:53.467Z,102006.90
2019-05-14T20:59:24.842Z,102007.75
2019-05-14T21:01:55.361Z,102009.91
2019-05-14T21:04:28.062Z,102002.42
2019-05-14T21:06:58.764Z,102009.42
2019-05-14T21:09:29.260Z,102011.20
2019-05-14T21:12:01.798Z,102016.77
2019-05-14T21:14:32.415Z,102008.83
2019-05-14T21:17:03.239Z,102017.27
2019-05-14T21:19:33.546Z,102009.27
2019-05-14T21:22:04.212Z,102011.84
2019-05-14T21:24:34.529Z,102005.26
2019-05-14T21:27:04.843Z,102009.05
2019-05-14T21:29:38.275Z,102012.13
2019-05-14T21:32:09.060Z,102013.39
2019-05-14T21:34:40.099Z,102001.53
2019-05-14T21:37:10.407Z,102007.16
2019-05-14T21:39:41.146Z,102016.80
2019-05-14T21:42:14.288Z,102015.95
2019-05-14T21:44:44.972Z,102023.37
2019-05-14T21:47:15.723Z,102020.09
2019-05-14T21:49:48.292Z,102027.82
2019-05-14T21:52:20.757Z,102025.72
2019-05-14T21:54:51.748Z,102022.98
2019-05-14T21:57:23.235Z,102030.67
2019-05-14T21:59:53.619Z,102038.20
2019-05-14T22:02:28.257Z,102034.80
2019-05-14T22:04:58.228Z,102034.70
2019-05-14T22:07:30.892Z,102036.36
2019-05-14T22:10:01.159Z,102030.27
2019-05-14T22:12:33.500Z,102035.11
2019-05-14T22:15:05.147Z,102032.47
2019-05-14T22:17:35.448Z,102027.42
2019-05-14T22:20:09.212Z,102018.69
2019-05-14T22:22:41.010Z,102026.27
2019-05-14T22:25:11.433Z,102020.88
2019-05-14T22:27:41.965Z,102012.10
2019-05-14T22:30:12.887Z,102026.97
2019-05-14T22:32:44.931Z,102016.39
2019-05-14T22:35:15.303Z,102011.46
2019-05-14T22:37:48.245Z,102014.90
2019-05-14T22:40:19.720Z,102011.75
2019-05-14T22:42:51.194Z,102017.87
2019-05-14T22:45:22.469Z,102013.30
2019-05-14T22:47:55.604Z,102018.85
2019-05-14T22:50:25.842Z,102007.48
2019-05-14T22:52:58.469Z,101999.50
2019-05-14T22:55:31.208Z,102002.13
2019-05-14T22:58:00.579Z,102009.17
2019-05-14T23:00:30.895Z,102017.48
2019-05-14T23:03:01.226Z,102004.25
2019-05-14T23:05:31.649Z,102010.41
2019-05-14T23:08:02.288Z,102003.34
2019-05-14T23:10:32.592Z,102006.81
2019-05-14T23:13:04.770Z,102017.64
2019-05-14T23:15:35.430Z,102010.27
2019-05-14T23:18:08.377Z,102003.23
2019-05-14T23:20:39.025Z,102001.42
2019-05-14T23:23:12.789Z,101995.99
2019-05-14T23:25:43.155Z,102003.31
2019-05-14T23:28:16.397Z,101995.89
2019-05-14T23:30:48.119Z,102004.61
2019-05-14T23:33:20.174Z,101989.27
2019-05-14T23:35:51.870Z,101996.19
2019-05-14T23:38:22.595Z,101993.55
2019-05-14T23:40:53.333Z,101995.62
2019-05-14T23:43:25.438Z,101995.14
2019-05-14T23:45:55.766Z,102012.92
2019-05-14T23:48:27.353Z,101994.52
2019-05-14T23:50:58.431Z,101995.34
2019-05-14T23:53:30.847Z,101990.89
2019-05-14T23:56:01.351Z,101993.58
2019-05-14T23:58:31.895Z,101978.89
